createdAt,value
2022-10-10T00:00:18.307Z,99.90
2022-10-10T00:02:45.422Z,99.90
2022-10-10T00:05:12.470Z,99.90
2022-10-10T00:07:39.517Z,99.90
2022-10-10T00:10:08.005Z,99.90
2022-10-10T00:12:35.030Z,99.90
2022-10-10T00:15:02.249Z,99.90
2022-10-10T00:17:29.323Z,99.90
2022-10-10T00:19:56.429Z,99.90
2022-10-10T00:22:23.445Z,99.90
2022-10-10T00:24:50.688Z,99.90
2022-10-10T00:27:17.860Z,99.90
2022-10-10T00:29:44.945Z,99.90
2022-10-10T00:32:12.089Z,99.90
2022-10-10T00:34:39.170Z,99.90
2022-10-10T00:37:06.298Z,99.90
2022-10-10T00:39:33.395Z,99.90
2022-10-10T00:42:00.474Z,99.90
2022-10-10T00:44:28.553Z,99.90
2022-10-10T00:46:55.669Z,99.90
2022-10-10T00:49:27.604Z,99.90
2022-10-10T00:51:57.656Z,99.90
2022-10-10T00:54:26.065Z,99.90
2022-10-10T00:57:04.248Z,99.90
2022-10-10T00:59:33.767Z,99.90
2022-10-10T01:02:00.804Z,99.90
2022-10-10T01:04:45.822Z,99.90
2022-10-10T01:07:21.032Z,99.90
2022-10-10T01:09:51.658Z,99.90
2022-10-10T01:12:58.531Z,99.90
2022-10-10T01:15:33.152Z,99.90
2022-10-10T01:18:04.548Z,99.90
2022-10-10T01:20:58.411Z,99.90
2022-10-10T01:23:33.474Z,99.90
2022-10-10T01:26:12.337Z,99.90
2022-10-10T01:28:48.994Z,99.90
2022-10-10T01:31:22.571Z,99.90
2022-10-10T01:33:50.729Z,99.90
2022-10-10T01:36:25.642Z,99.90
2022-10-10T01:39:09.842Z,99.90
2022-10-10T01:41:43.345Z,99.90
2022-10-10T01:44:10.487Z,99.90
2022-10-10T01:46:37.741Z,99.90
2022-10-10T01:49:05.139Z,99.90
2022-10-10T01:51:51.392Z,99.90
2022-10-10T01:54:38.346Z,99.90
2022-10-10T01:57:20.196Z,99.90
2022-10-10T01:59:58.372Z,99.90
2022-10-10T02:02:49.092Z,99.90
2022-10-10T02:05:39.836Z,99.90
2022-10-10T02:08:09.018Z,99.90
2022-10-10T02:10:44.863Z,99.90
2022-10-10T02:13:13.146Z,99.90
2022-10-10T02:15:46.075Z,99.90
2022-10-10T02:18:16.410Z,99.90
2022-10-10T02:20:44.993Z,99.90
2022-10-10T02:23:16.238Z,99.90
2022-10-10T02:25:47.700Z,99.90
2022-10-10T02:28:18.520Z,99.90
2022-10-10T02:30:49.349Z,99.90
2022-10-10T02:33:20.701Z,99.90
2022-10-10T02:35:50.743Z,99.90
2022-10-10T02:38:19.517Z,99.90
2022-10-10T02:40:48.249Z,99.90
2022-10-10T02:43:16.737Z,99.90
2022-10-10T02:45:43.838Z,99.90
2022-10-10T02:48:11.174Z,99.90
2022-10-10T02:50:38.388Z,99.90
2022-10-10T02:53:05.471Z,99.90
2022-10-10T02:55:32.691Z,99.90
2022-10-10T02:57:59.684Z,99.90
2022-10-10T03:00:26.818Z,99.90
2022-10-10T03:02:54.176Z,99.90
2022-10-10T03:05:21.557Z,99.90
2022-10-10T03:07:48.624Z,99.90
2022-10-10T03:10:15.867Z,99.90
2022-10-10T03:12:42.894Z,99.90
2022-10-10T03:15:11.955Z,99.90
2022-10-10T03:17:39.950Z,99.90
2022-10-10T03:20:08.339Z,99.90
2022-10-10T03:22:35.476Z,99.90
2022-10-10T03:25:02.661Z,99.90
2022-10-10T03:27:29.872Z,99.90
2022-10-10T03:29:57.010Z,99.90
2022-10-10T03:32:24.174Z,99.90
2022-10-10T03:34:51.346Z,99.90
2022-10-10T03:37:18.376Z,99.90
2022-10-10T03:39:45.693Z,99.90
2022-10-10T03:42:12.775Z,99.90
2022-10-10T03:44:39.907Z,99.90
2022-10-10T03:47:07.023Z,99.90
2022-10-10T03:49:34.155Z,99.90
2022-10-10T03:52:01.516Z,99.90
2022-10-10T03:54:28.662Z,99.90
2022-10-10T03:56:55.679Z,99.90
2022-10-10T03:59:22.821Z,99.90
2022-10-10T04:01:49.918Z,99.90
2022-10-10T04:04:19.887Z,99.90
2022-10-10T04:06:46.936Z,99.90
2022-10-10T04:09:13.973Z,99.90
2022-10-10T04:11:41.158Z,99.90
2022-10-10T04:14:08.263Z,99.90
2022-10-10T04:16:35.539Z,99.90
2022-10-10T04:19:02.664Z,99.90
2022-10-10T04:21:29.796Z,99.90
2022-10-10T04:23:56.939Z,99.90
2022-10-10T04:26:24.089Z,99.90
2022-10-10T04:28:51.156Z,99.90
2022-10-10T04:31:18.332Z,99.90
2022-10-10T04:33:45.602Z,99.90
2022-10-10T04:36:12.742Z,99.90
2022-10-10T04:38:39.810Z,99.90
2022-10-10T04:41:07.075Z,99.90
2022-10-10T04:43:34.861Z,99.90
2022-10-10T04:46:01.958Z,99.90
2022-10-10T04:48:29.066Z,99.90
2022-10-10T04:50:58.313Z,99.90
2022-10-10T04:53:26.963Z,99.90
2022-10-10T04:55:54.203Z,99.90
2022-10-10T04:58:21.544Z,99.90
2022-10-10T05:00:56.187Z,99.90
2022-10-10T05:03:24.214Z,99.90
2022-10-10T05:05:51.541Z,99.90
2022-10-10T05:08:19.441Z,99.90
2022-10-10T05:10:47.622Z,99.90
2022-10-10T05:13:16.581Z,99.90
2022-10-10T05:15:43.810Z,99.90
2022-10-10T05:18:11.067Z,99.90
2022-10-10T05:20:38.262Z,99.90
2022-10-10T05:23:05.353Z,99.90
2022-10-10T05:25:32.478Z,99.90
2022-10-10T05:27:59.576Z,99.90
2022-10-10T05:30:26.786Z,99.90
2022-10-10T05:32:54.078Z,99.90
2022-10-10T05:35:21.453Z,99.90
2022-10-10T05:37:48.791Z,99.90
2022-10-10T05:40:15.978Z,99.90
2022-10-10T05:42:43.055Z,99.90
2022-10-10T05:45:10.991Z,99.90
2022-10-10T05:47:38.595Z,99.90
2022-10-10T05:50:06.870Z,99.90
2022-10-10T05:52:35.367Z,99.90
2022-10-10T05:55:02.454Z,99.90
2022-10-10T05:57:29.592Z,99.90
2022-10-10T05:59:56.725Z,99.90
2022-10-10T06:02:23.735Z,99.90
2022-10-10T06:04:50.842Z,99.90
2022-10-10T06:07:17.894Z,99.90
2022-10-10T06:09:45.178Z,99.90
2022-10-10T06:12:12.298Z,99.90
2022-10-10T06:14:39.383Z,99.90
2022-10-10T06:17:06.594Z,99.90
2022-10-10T06:19:33.752Z,99.90
2022-10-10T06:22:01.468Z,99.90
2022-10-10T06:24:28.598Z,99.90
2022-10-10T06:26:55.670Z,99.90
2022-10-10T06:29:22.957Z,99.90
2022-10-10T06:31:50.026Z,99.90
2022-10-10T06:34:17.234Z,99.90
2022-10-10T06:36:44.330Z,99.90
2022-10-10T06:39:11.494Z,99.90
2022-10-10T06:41:38.570Z,99.90
2022-10-10T06:44:11.073Z,99.90
2022-10-10T06:46:38.181Z,99.90
2022-10-10T06:49:06.028Z,99.90
2022-10-10T06:51:33.125Z,99.90
2022-10-10T06:54:00.281Z,99.90
2022-10-10T06:56:28.598Z,99.90
2022-10-10T06:58:55.835Z,99.90
2022-10-10T07:01:24.430Z,99.90
2022-10-10T07:03:51.869Z,99.90
2022-10-10T07:06:19.126Z,99.90
2022-10-10T07:08:46.203Z,99.90
2022-10-10T07:11:13.726Z,99.90
2022-10-10T07:13:41.082Z,99.90
2022-10-10T07:16:08.481Z,99.90
2022-10-10T07:18:36.940Z,99.90
2022-10-10T07:21:05.585Z,99.90
2022-10-10T07:23:33.065Z,99.90
2022-10-10T07:26:06.938Z,99.90
2022-10-10T07:28:35.238Z,99.90
2022-10-10T07:31:05.268Z,99.90
2022-10-10T07:33:35.245Z,99.90
2022-10-10T07:36:02.560Z,99.90
2022-10-10T07:38:31.492Z,99.90
2022-10-10T07:40:58.525Z,99.90
2022-10-10T07:43:26.061Z,99.90
2022-10-10T07:45:53.301Z,99.90
2022-10-10T07:48:20.416Z,99.90
2022-10-10T07:50:47.903Z,98.90
2022-10-10T07:53:14.954Z,96.90
2022-10-10T07:55:43.127Z,97.90
2022-10-10T07:58:12.472Z,98.20
2022-10-10T08:00:42.287Z,99.30
2022-10-10T08:03:12.091Z,99.90
2022-10-10T08:05:44.304Z,99.90
2022-10-10T08:08:14.001Z,99.90
2022-10-10T08:10:44.422Z,99.90
2022-10-10T08:13:11.622Z,99.90
2022-10-10T08:15:40.460Z,99.90
2022-10-10T08:18:10.692Z,99.90
2022-10-10T08:20:37.869Z,99.90
2022-10-10T08:23:04.977Z,99.90
2022-10-10T08:25:32.048Z,99.90
2022-10-10T08:27:59.329Z,99.90
2022-10-10T08:30:26.744Z,99.90
2022-10-10T08:32:55.905Z,99.90
2022-10-10T08:35:23.076Z,99.90
2022-10-10T08:37:50.725Z,99.90
2022-10-10T08:40:20.391Z,99.90
2022-10-10T08:42:53.207Z,99.90
2022-10-10T08:45:29.324Z,99.90
2022-10-10T08:48:03.066Z,99.90
2022-10-10T08:50:36.245Z,99.90
2022-10-10T08:53:06.139Z,99.90
2022-10-10T08:55:35.789Z,99.90
2022-10-10T08:58:27.982Z,99.90
2022-10-10T09:01:04.932Z,99.90
2022-10-10T09:03:37.809Z,99.90
2022-10-10T09:06:24.867Z,99.90
2022-10-10T09:09:08.258Z,99.90
2022-10-10T09:11:55.255Z,99.90
2022-10-10T09:14:23.367Z,99.90
2022-10-10T09:17:00.599Z,99.90
2022-10-10T09:19:59.907Z,99.90
2022-10-10T09:22:33.984Z,99.90
2022-10-10T09:25:18.976Z,99.90
2022-10-10T09:27:58.450Z,99.90
2022-10-10T09:30:26.073Z,99.90
2022-10-10T09:33:01.161Z,99.90
2022-10-10T09:35:34.603Z,99.90
2022-10-10T09:38:35.900Z,99.90
2022-10-10T09:41:14.298Z,99.90
2022-10-10T09:43:42.102Z,99.90
2022-10-10T09:46:09.195Z,99.90
2022-10-10T09:48:39.739Z,99.90
2022-10-10T09:51:12.625Z,99.90
2022-10-10T09:53:44.233Z,99.90
2022-10-10T09:56:18.217Z,99.90
2022-10-10T09:58:49.029Z,99.90
2022-10-10T10:01:33.286Z,99.90
2022-10-10T10:04:27.966Z,99.90
2022-10-10T10:07:06.550Z,99.90
2022-10-10T10:09:34.019Z,99.90
2022-10-10T10:12:02.247Z,99.90
2022-10-10T10:14:35.689Z,99.90
2022-10-10T10:17:23.836Z,99.60
2022-10-10T10:19:51.492Z,99.70
2022-10-10T10:22:39.495Z,99.90
2022-10-10T10:25:32.405Z,99.30
2022-10-10T10:28:20.432Z,98.60
2022-10-10T10:30:48.485Z,98.40
2022-10-10T10:33:43.272Z,97.40
2022-10-10T10:36:50.187Z,96.90
2022-10-10T10:39:37.893Z,97.50
2022-10-10T10:42:07.135Z,97.00
2022-10-10T10:45:01.746Z,96.50
2022-10-10T10:47:32.397Z,95.40
2022-10-10T10:50:06.261Z,95.60
2022-10-10T10:53:00.970Z,94.80
2022-10-10T10:55:35.808Z,95.10
2022-10-10T11:02:02.480Z,95.60
2022-10-10T11:05:19.252Z,95.70
2022-10-10T11:08:20.028Z,93.70
2022-10-10T11:11:17.529Z,94.10
2022-10-10T11:14:10.753Z,94.00
2022-10-10T11:16:49.058Z,93.60
2022-10-10T11:19:25.898Z,93.90
2022-10-10T11:22:02.723Z,94.40
2022-10-10T11:24:30.005Z,94.60
2022-10-10T11:27:02.714Z,93.90
2022-10-10T11:29:35.551Z,95.80
2022-10-10T11:32:10.810Z,96.60
2022-10-10T11:34:42.593Z,95.90
2022-10-10T11:37:19.106Z,95.70
2022-10-10T11:39:56.452Z,94.50
2022-10-10T11:42:33.024Z,95.30
2022-10-10T11:45:05.284Z,94.90
2022-10-10T11:47:39.933Z,95.00
2022-10-10T11:50:26.788Z,96.30
2022-10-10T11:53:13.394Z,95.10
2022-10-10T11:56:20.353Z,94.80
2022-10-10T11:58:55.533Z,95.00
2022-10-10T12:01:30.824Z,95.80
2022-10-10T12:03:58.005Z,95.40
2022-10-10T12:06:32.727Z,95.90
2022-10-10T12:09:07.503Z,96.10
2022-10-10T12:11:49.734Z,95.90
2022-10-10T12:14:22.404Z,95.80
2022-10-10T12:16:57.808Z,95.20
2022-10-10T12:19:28.545Z,95.60
2022-10-10T12:21:59.798Z,94.60
2022-10-10T12:24:37.770Z,94.60
2022-10-10T12:27:08.275Z,94.70
2022-10-10T12:29:47.771Z,95.30
2022-10-10T12:32:18.509Z,95.30
2022-10-10T12:34:49.146Z,95.00
2022-10-10T12:37:27.040Z,95.60
2022-10-10T12:40:07.114Z,95.40
2022-10-10T12:42:39.886Z,96.30
2022-10-10T12:45:30.561Z,96.80
2022-10-10T12:48:05.384Z,96.50
2022-10-10T12:50:40.265Z,96.50
2022-10-10T12:53:17.097Z,96.90
2022-10-10T12:55:47.068Z,96.60
2022-10-10T12:58:27.086Z,97.00
2022-10-10T13:00:58.100Z,96.70
2022-10-10T13:03:33.105Z,96.20
2022-10-10T13:06:06.786Z,96.50
2022-10-10T13:08:37.531Z,96.30
2022-10-10T13:11:12.135Z,96.10
2022-10-10T13:13:48.315Z,96.20
2022-10-10T13:16:19.694Z,95.60
2022-10-10T13:18:56.286Z,96.10
2022-10-10T13:21:29.474Z,95.60
2022-10-10T13:24:03.718Z,95.80
2022-10-10T13:26:35.606Z,96.50
2022-10-10T13:29:27.352Z,96.50
2022-10-10T13:32:00.476Z,96.30
2022-10-10T13:34:32.161Z,96.80
2022-10-10T13:37:01.410Z,97.00
2022-10-10T13:39:31.857Z,97.30
2022-10-10T13:42:00.083Z,97.80
2022-10-10T13:44:49.984Z,98.10
2022-10-10T13:47:53.951Z,98.20
2022-10-10T13:50:24.527Z,98.70
2022-10-10T13:53:27.622Z,99.00
2022-10-10T13:56:18.295Z,98.80
2022-10-10T13:58:50.701Z,99.30
2022-10-10T14:01:41.748Z,99.20
2022-10-10T14:04:13.396Z,98.60
2022-10-10T14:06:48.779Z,98.80
2022-10-10T14:09:30.730Z,99.20
2022-10-10T14:12:00.528Z,99.90
2022-10-10T14:14:41.585Z,99.90
2022-10-10T14:17:10.376Z,99.90
2022-10-10T14:19:38.637Z,99.90
2022-10-10T14:22:06.155Z,99.90
2022-10-10T14:24:33.367Z,99.70
2022-10-10T14:27:20.434Z,99.90
2022-10-10T14:29:47.958Z,99.90
2022-10-10T14:32:15.676Z,99.90
2022-10-10T14:34:43.249Z,99.90
2022-10-10T14:37:23.169Z,99.90
2022-10-10T14:39:51.142Z,99.90
2022-10-10T14:42:20.551Z,99.90
2022-10-10T14:44:48.274Z,99.90
2022-10-10T14:47:21.097Z,99.90
2022-10-10T14:49:48.719Z,99.90
2022-10-10T14:52:16.322Z,99.90
2022-10-10T14:54:43.589Z,99.90
2022-10-10T14:57:13.349Z,99.90
2022-10-10T14:59:47.789Z,99.90
2022-10-10T15:02:18.141Z,99.90
2022-10-10T15:04:45.240Z,99.90
2022-10-10T15:07:14.378Z,99.90
2022-10-10T15:10:02.528Z,99.90
2022-10-10T15:12:32.617Z,99.90
2022-10-10T15:14:59.862Z,99.90
2022-10-10T15:17:27.342Z,99.90
2022-10-10T15:19:54.468Z,99.90
2022-10-10T15:22:21.642Z,99.90
2022-10-10T15:24:48.679Z,99.90
2022-10-10T15:27:16.421Z,99.90
2022-10-10T15:29:43.517Z,99.90
2022-10-10T15:32:10.705Z,99.90
2022-10-10T15:34:37.994Z,99.90
2022-10-10T15:37:05.174Z,99.90
2022-10-10T15:39:35.516Z,99.90
2022-10-10T15:42:09.586Z,99.90
2022-10-10T15:44:45.761Z,99.90
2022-10-10T15:47:14.273Z,99.90
2022-10-10T15:49:42.009Z,99.90
2022-10-10T15:52:09.851Z,99.90
2022-10-10T15:54:37.206Z,99.90
2022-10-10T15:57:04.432Z,99.90
2022-10-10T15:59:31.828Z,99.90
2022-10-10T16:01:58.950Z,99.90
2022-10-10T16:04:26.651Z,99.90
2022-10-10T16:07:20.042Z,99.90
2022-10-10T16:09:41.623Z,99.90
2022-10-10T16:12:09.062Z,99.90
2022-10-10T16:14:36.269Z,99.90
2022-10-10T16:17:03.312Z,99.90
2022-10-10T16:19:30.363Z,99.90
2022-10-10T16:21:57.492Z,99.90
2022-10-10T16:24:24.669Z,99.90
2022-10-10T16:26:51.776Z,99.90
2022-10-10T16:29:18.839Z,99.90
2022-10-10T16:31:46.136Z,99.90
2022-10-10T16:34:15.911Z,99.90
2022-10-10T16:36:43.494Z,99.90
2022-10-10T16:39:10.714Z,99.90
2022-10-10T16:41:53.182Z,99.90
2022-10-10T16:44:20.410Z,99.90
2022-10-10T16:46:47.699Z,99.90
2022-10-10T16:49:17.087Z,99.90
2022-10-10T16:51:44.309Z,99.90
2022-10-10T16:54:11.470Z,99.90
2022-10-10T16:56:38.512Z,99.90
2022-10-10T16:59:05.857Z,99.90
2022-10-10T17:01:33.084Z,99.90
2022-10-10T17:04:01.429Z,99.90
2022-10-10T17:06:37.419Z,99.90
2022-10-10T17:09:07.449Z,99.90
2022-10-10T17:11:35.186Z,99.90
2022-10-10T17:14:02.405Z,99.90
2022-10-10T17:19:18.448Z,99.90
2022-10-10T17:21:45.582Z,99.90
2022-10-10T17:24:13.371Z,99.90
2022-10-10T17:26:40.517Z,99.90
2022-10-10T17:29:08.158Z,99.90
2022-10-10T17:31:35.230Z,99.90
2022-10-10T17:34:02.483Z,99.90
2022-10-10T17:36:29.745Z,99.90
2022-10-10T17:39:00.594Z,99.90
2022-10-10T17:41:28.871Z,99.90
2022-10-10T17:43:56.323Z,99.90
2022-10-10T17:46:34.899Z,99.90
2022-10-10T17:49:09.302Z,99.90
2022-10-10T17:51:37.456Z,99.90
2022-10-10T17:54:06.444Z,99.90
2022-10-10T17:56:34.283Z,99.90
2022-10-10T17:59:02.586Z,99.90
2022-10-10T18:01:30.937Z,99.90
2022-10-10T18:03:58.756Z,99.90
2022-10-10T18:06:26.358Z,99.90
2022-10-10T18:08:54.478Z,99.90
2022-10-10T18:11:30.462Z,99.90
2022-10-10T18:14:00.823Z,99.90
2022-10-10T18:16:33.972Z,99.90
2022-10-10T18:19:03.449Z,99.90
2022-10-10T18:21:31.584Z,99.90
2022-10-10T18:23:58.671Z,99.90
2022-10-10T18:26:30.648Z,99.90
2022-10-10T18:28:58.239Z,99.90
2022-10-10T18:31:29.371Z,99.90
2022-10-10T18:33:57.642Z,99.90
2022-10-10T18:36:27.584Z,99.90
2022-10-10T18:38:57.348Z,99.90
2022-10-10T18:41:28.010Z,99.90
2022-10-10T18:43:57.871Z,99.90
2022-10-10T18:46:25.782Z,99.90
2022-10-10T18:48:54.433Z,99.90
2022-10-10T18:51:25.450Z,99.90
2022-10-10T18:54:03.265Z,99.90
2022-10-10T18:56:32.739Z,99.90
2022-10-10T18:59:03.869Z,99.90
2022-10-10T19:01:36.891Z,99.90
2022-10-10T19:04:05.726Z,99.90
2022-10-10T19:06:34.250Z,99.90
2022-10-10T19:09:06.602Z,99.90
2022-10-10T19:11:39.189Z,99.90
2022-10-10T19:14:11.346Z,99.90
2022-10-10T19:16:39.467Z,99.90
2022-10-10T19:19:06.690Z,99.90
2022-10-10T19:21:38.369Z,99.90
2022-10-10T19:24:08.200Z,99.90
2022-10-10T19:26:36.368Z,99.90
2022-10-10T19:29:08.672Z,99.90
2022-10-10T19:31:37.587Z,99.90
2022-10-10T19:34:05.313Z,99.90
2022-10-10T19:36:33.075Z,99.90
2022-10-10T19:39:01.537Z,99.90
2022-10-10T19:41:29.740Z,99.90
2022-10-10T19:43:58.678Z,99.90
2022-10-10T19:46:27.752Z,99.90
2022-10-10T19:48:59.629Z,99.90
2022-10-10T19:51:29.533Z,99.90
2022-10-10T19:53:58.924Z,99.90
2022-10-10T19:56:27.164Z,99.90
2022-10-10T19:59:08.241Z,99.90
2022-10-10T20:01:38.507Z,99.90
2022-10-10T20:04:05.905Z,99.90
2022-10-10T20:06:41.504Z,99.90
2022-10-10T20:09:11.116Z,99.90
2022-10-10T20:11:39.019Z,99.90
2022-10-10T20:14:08.280Z,99.90
2022-10-10T20:16:42.445Z,99.90
2022-10-10T20:19:12.550Z,99.90
2022-10-10T20:21:40.128Z,99.90
2022-10-10T20:24:09.882Z,99.90
2022-10-10T20:26:37.029Z,99.90
2022-10-10T20:29:05.390Z,99.90
2022-10-10T20:31:36.507Z,99.90
2022-10-10T20:34:05.352Z,99.90
2022-10-10T20:36:33.952Z,99.90
2022-10-10T20:39:05.193Z,99.90
2022-10-10T20:41:34.175Z,99.90
2022-10-10T20:44:04.828Z,99.90
2022-10-10T20:46:36.542Z,99.90
2022-10-10T20:49:12.811Z,99.90
2022-10-10T20:51:40.227Z,99.90
2022-10-10T20:54:08.256Z,99.90
2022-10-10T20:56:35.820Z,99.90
2022-10-10T20:59:03.025Z,99.90
2022-10-10T21:01:30.887Z,99.90
2022-10-10T21:03:58.843Z,99.90
2022-10-10T21:06:29.370Z,99.90
2022-10-10T21:08:59.425Z,99.90
2022-10-10T21:11:27.405Z,99.90
2022-10-10T21:13:57.423Z,99.90
2022-10-10T21:16:28.658Z,99.90
2022-10-10T21:18:58.401Z,99.90
2022-10-10T21:21:29.865Z,99.90
2022-10-10T21:23:57.263Z,99.90
2022-10-10T21:26:26.850Z,99.90
2022-10-10T21:28:55.748Z,99.90
2022-10-10T21:31:26.521Z,99.90
2022-10-10T21:33:55.965Z,99.90
2022-10-10T21:36:25.771Z,99.90
2022-10-10T21:38:54.765Z,99.90
2022-10-10T21:41:22.890Z,99.90
2022-10-10T21:43:53.107Z,99.90
2022-10-10T21:46:25.060Z,99.90
2022-10-10T21:48:54.034Z,99.90
2022-10-10T21:51:21.741Z,99.90
2022-10-10T21:53:49.337Z,99.90
2022-10-10T21:56:17.115Z,99.90
2022-10-10T21:58:46.382Z,99.90
2022-10-10T22:01:16.748Z,99.90
2022-10-10T22:03:44.901Z,99.90
2022-10-10T22:06:13.928Z,99.90
2022-10-10T22:08:42.390Z,99.90
2022-10-10T22:11:12.733Z,99.90
2022-10-10T22:13:40.100Z,99.90
2022-10-10T22:16:08.601Z,99.90
2022-10-10T22:18:36.609Z,99.90
2022-10-10T22:21:05.621Z,99.90
2022-10-10T22:23:32.888Z,99.90
2022-10-10T22:26:00.129Z,99.90
2022-10-10T22:28:27.481Z,99.90
2022-10-10T22:30:54.602Z,99.90
2022-10-10T22:33:21.704Z,99.90
2022-10-10T22:35:48.736Z,99.90
2022-10-10T22:38:15.875Z,99.90
2022-10-10T22:40:42.938Z,99.90
2022-10-10T22:43:09.934Z,99.90
2022-10-10T22:45:37.017Z,99.90
2022-10-10T22:48:04.126Z,99.90
2022-10-10T22:50:31.335Z,99.90
2022-10-10T22:52:58.374Z,99.90
2022-10-10T22:55:25.399Z,99.90
2022-10-10T22:57:52.506Z,99.90
2022-10-10T23:00:19.906Z,99.90
2022-10-10T23:02:46.930Z,99.90
2022-10-10T23:05:14.226Z,99.90
2022-10-10T23:07:41.739Z,99.90
2022-10-10T23:10:09.605Z,99.90
2022-10-10T23:12:38.397Z,99.90
2022-10-10T23:15:06.002Z,99.90
2022-10-10T23:17:36.619Z,99.90
2022-10-10T23:20:06.126Z,99.90
2022-10-10T23:22:34.239Z,99.90
2022-10-10T23:25:01.557Z,99.90
2022-10-10T23:27:28.791Z,99.90
2022-10-10T23:29:55.861Z,99.90
2022-10-10T23:32:25.156Z,99.90
2022-10-10T23:34:52.367Z,99.90
2022-10-10T23:37:19.390Z,99.90
2022-10-10T23:39:46.458Z,99.90
2022-10-10T23:42:13.520Z,99.90
2022-10-10T23:44:40.624Z,99.90
2022-10-10T23:47:07.710Z,99.90
2022-10-10T23:49:34.748Z,99.90
2022-10-10T23:52:01.894Z,99.90
2022-10-10T23:54:28.988Z,99.90
2022-10-10T23:56:56.173Z,99.90
2022-10-10T23:59:23.193Z,99.90
